New Salisbury, Indiana
Current Conditions -  °F | °C
As of 1:35 AM on Thursday 27 Nov 2014 (Local Time) from KSDF Reporting Station
Light Snow Light Snow  
Wind Chill: 28°   Ceiling: 1800
Heat Index: 35°   Visibility: 2.5mi
Dew Point: 31°   Wind: 9mph
Humidity: 85%   Direction: 360°N
Pressure: 30.07"   Gusts: NA
Location:  38.31°N, 86.09°W
Report Text: KSDF 270635Z 36008KT 2 1/2SM -SN BR BKN018 OVC025 02/M01 A3007 RMK AO2 P0000 T00171006
Loading
Personal Weather Stations






























Interactive Weather Map New forecast layout! Learn more

10-Day Weather Forecast

Advertisements
Track Severe Weather on mobile